PILOTS ONLINE: 369    ATC ONLINE: 31

Location

City Bella Bella
Country  Canada
Latitude 52° 11' 6" N
Longitude 128° 9' 25" W
Elevation 141 ft
Type Small Airport

Weather

METAR
2014/07/12 10:00
CBBC 121000Z AUTO 00000KT 9SM CLR 10/08 A3009 RMK SLP188
TAF
2014/07/12 01:00
TAF CBBC 120039Z 1201/1205 33008KT P6SM SKC 
      BECMG 1201/1203 VRB03KT 
      RMK FCST BASED ON AUTO OBS. NXT FCST WILL BE ISSUED AT 121245Z

Runways

13/31 3700 ft / 75 ft

Outbound flights

Inbound flights


Spotted incorrect airport information? Please login with your VATSIM ID.